createdAt,value
2019-04-20T00:03:42.356Z,51.95
2019-04-20T00:09:12.048Z,52.84
2019-04-20T00:14:34.511Z,53.25
2019-04-20T00:19:57.840Z,54.21
2019-04-20T00:25:53.163Z,54.38
2019-04-20T00:31:23.600Z,55.57
2019-04-20T00:36:32.883Z,56.57
2019-04-20T00:42:02.320Z,57.12
2019-04-20T00:47:34.903Z,57.00
2019-04-20T00:52:59.059Z,57.21
2019-04-20T00:58:20.219Z,58.31
2019-04-20T01:04:02.281Z,59.04
2019-04-20T01:09:43.164Z,59.09
2019-04-20T01:15:12.897Z,59.24
2019-04-20T01:20:33.978Z,59.27
2019-04-20T01:26:05.473Z,59.00
2019-04-20T01:31:33.682Z,60.15
2019-04-20T01:37:04.413Z,59.60
2019-04-20T01:42:17.165Z,59.61
2019-04-20T01:47:47.246Z,59.94
2019-04-20T01:53:16.419Z,60.16
2019-04-20T01:59:10.691Z,60.58
2019-04-20T02:04:29.173Z,60.16
2019-04-20T02:09:56.059Z,60.38
2019-04-20T02:15:26.157Z,62.42
2019-04-20T02:20:59.858Z,62.25
2019-04-20T02:26:07.139Z,64.33
2019-04-20T02:32:11.683Z,66.22
2019-04-20T02:43:15.027Z,66.64
2019-04-20T02:48:25.909Z,67.13
2019-04-20T02:54:02.162Z,66.65
2019-04-20T03:04:24.938Z,68.36
2019-04-20T03:09:57.982Z,70.07
2019-04-20T03:15:27.607Z,71.34
2019-04-20T03:20:54.418Z,70.64
2019-04-20T03:26:17.604Z,70.04
2019-04-20T03:42:28.887Z,71.19
2019-04-20T03:48:07.396Z,71.17
2019-04-20T03:53:39.304Z,72.02
2019-04-20T03:59:20.790Z,71.53
2019-04-20T04:05:03.326Z,71.48
2019-04-20T04:10:20.682Z,71.49
2019-04-20T04:15:36.227Z,71.80
2019-04-20T04:21:06.256Z,71.99
2019-04-20T04:26:39.062Z,71.66
2019-04-20T04:32:22.254Z,71.41
2019-04-20T04:37:37.545Z,70.55
2019-04-20T04:43:02.240Z,69.07
2019-04-20T04:48:16.777Z,67.97
2019-04-20T04:53:44.226Z,66.08
2019-04-20T04:58:58.279Z,63.20
2019-04-20T05:05:05.371Z,61.09
2019-04-20T05:10:09.831Z,58.51
2019-04-20T05:15:48.463Z,56.69
2019-04-20T05:21:31.422Z,54.36
2019-04-20T05:27:14.659Z,52.29
2019-04-20T05:32:28.432Z,50.20
2019-04-20T05:38:06.883Z,49.04
2019-04-20T05:43:31.607Z,48.57
2019-04-20T05:49:04.554Z,47.32
2019-04-20T05:54:26.571Z,47.48
2019-04-20T05:59:55.770Z,48.30
2019-04-20T06:05:36.407Z,46.30
2019-04-20T06:10:45.485Z,45.40
2019-04-20T06:16:40.988Z,45.47
2019-04-20T06:22:10.269Z,43.72
2019-04-20T06:27:38.422Z,42.88
2019-04-20T06:33:51.998Z,41.62
2019-04-20T06:39:02.324Z,40.69
2019-04-20T06:49:43.776Z,37.45
2019-04-20T06:55:15.716Z,37.16
2019-04-20T07:00:55.309Z,37.08
2019-04-20T07:06:30.877Z,36.62
2019-04-20T07:11:37.442Z,35.49
2019-04-20T07:17:29.735Z,35.12
2019-04-20T07:23:11.130Z,34.62
2019-04-20T07:28:27.807Z,33.03
2019-04-20T07:33:52.487Z,32.25
2019-04-20T07:39:21.654Z,31.50
2019-04-20T07:44:48.633Z,31.42
2019-04-20T07:50:04.956Z,30.70
2019-04-20T08:01:18.176Z,29.69
2019-04-20T08:06:33.049Z,29.29
2019-04-20T08:12:18.580Z,28.96
2019-04-20T08:17:52.804Z,28.53
2019-04-20T08:23:05.051Z,28.65
2019-04-20T08:28:24.227Z,27.28
2019-04-20T08:34:15.155Z,27.06
2019-04-20T08:39:53.365Z,26.51
2019-04-20T08:45:03.631Z,26.77
2019-04-20T08:50:23.691Z,26.51
2019-04-20T08:55:42.532Z,26.66
2019-04-20T09:00:58.755Z,25.80
2019-04-20T09:06:32.311Z,26.60
2019-04-20T09:12:00.831Z,26.98
2019-04-20T09:17:27.251Z,27.08
2019-04-20T09:23:15.688Z,27.16
2019-04-20T09:28:56.709Z,26.12
2019-04-20T09:34:25.858Z,25.50
2019-04-20T09:40:04.756Z,25.73
2019-04-20T09:45:19.938Z,25.71
2019-04-20T09:50:57.514Z,24.34
2019-04-20T09:56:19.791Z,23.88
2019-04-20T10:01:35.110Z,23.96
2019-04-20T10:06:55.238Z,23.44
2019-04-20T10:12:19.755Z,21.82
2019-04-20T10:17:45.676Z,21.19
2019-04-20T10:23:09.477Z,22.17
2019-04-20T10:28:33.940Z,20.27
2019-04-20T10:33:59.767Z,19.37
2019-04-20T10:39:25.125Z,19.57
2019-04-20T10:44:52.304Z,19.39
2019-04-20T10:50:16.860Z,20.12
2019-04-20T10:55:41.123Z,19.37
2019-04-20T11:01:05.622Z,18.73
2019-04-20T11:06:29.530Z,18.92
2019-04-20T11:11:54.452Z,17.67
2019-04-20T11:17:18.393Z,16.63
2019-04-20T11:22:42.274Z,16.29
2019-04-20T11:28:08.207Z,16.89
2019-04-20T11:33:34.140Z,17.16
2019-04-20T11:38:58.900Z,17.56
2019-04-20T11:44:23.769Z,17.72
2019-04-20T11:49:49.404Z,17.99
2019-04-20T11:55:14.080Z,17.08
2019-04-20T12:00:53.882Z,16.86
2019-04-20T12:06:08.804Z,16.71
2019-04-20T12:11:46.789Z,15.98
2019-04-20T12:16:59.723Z,16.07
2019-04-20T12:22:26.253Z,15.93
2019-04-20T12:27:55.504Z,15.92
2019-04-20T12:33:17.814Z,15.76
2019-04-20T12:38:43.230Z,16.19
2019-04-20T12:44:07.907Z,16.39
2019-04-20T12:49:31.877Z,17.98
2019-04-20T12:54:59.517Z,17.08
2019-04-20T13:00:23.863Z,16.77
2019-04-20T13:05:49.858Z,17.46
2019-04-20T13:11:24.718Z,18.02
2019-04-20T13:16:51.753Z,17.78
2019-04-20T13:22:16.940Z,17.99
2019-04-20T13:27:42.921Z,18.81
2019-04-20T13:33:07.968Z,18.77
2019-04-20T13:38:32.093Z,18.05
2019-04-20T13:43:59.311Z,17.09
2019-04-20T13:49:22.973Z,17.14
2019-04-20T13:54:47.564Z,18.31
2019-04-20T14:00:32.100Z,18.64
2019-04-20T14:05:56.450Z,19.15
2019-04-20T14:11:21.576Z,19.24
2019-04-20T14:16:47.404Z,19.28
2019-04-20T14:22:11.622Z,18.90
2019-04-20T14:27:37.102Z,19.41
2019-04-20T14:33:02.911Z,18.96
2019-04-20T14:38:28.519Z,18.90
2019-04-20T14:43:55.144Z,17.91
2019-04-20T14:49:19.115Z,18.49
2019-04-20T14:54:43.613Z,17.23
2019-04-20T15:00:25.749Z,16.56
2019-04-20T15:05:50.869Z,17.99
2019-04-20T15:11:16.671Z,18.73
2019-04-20T15:16:42.664Z,19.35
2019-04-20T15:22:27.630Z,18.74
2019-04-20T15:27:54.479Z,18.21
2019-04-20T15:33:19.397Z,18.01
2019-04-20T15:38:45.013Z,18.63
2019-04-20T15:44:09.351Z,19.44
2019-04-20T15:49:33.848Z,19.15
2019-04-20T15:55:03.089Z,19.87
2019-04-20T16:00:24.760Z,20.84
2019-04-20T16:06:09.547Z,20.35
2019-04-20T16:11:34.990Z,21.12
2019-04-20T16:17:00.697Z,19.94
2019-04-20T16:22:27.059Z,20.24
2019-04-20T16:27:51.828Z,19.74
2019-04-20T16:33:16.491Z,19.54
2019-04-20T16:38:41.865Z,19.67
2019-04-20T16:44:07.215Z,19.32
2019-04-20T16:49:31.162Z,19.55
2019-04-20T16:54:56.024Z,19.08
2019-04-20T17:00:21.421Z,18.59
2019-04-20T17:05:45.352Z,19.92
2019-04-20T17:11:11.746Z,21.06
2019-04-20T17:16:35.657Z,22.09
2019-04-20T17:22:01.232Z,23.00
2019-04-20T17:27:49.160Z,24.30
2019-04-20T17:33:15.897Z,25.59
2019-04-20T17:38:47.147Z,27.27
2019-04-20T17:44:25.021Z,28.54
2019-04-20T17:49:42.377Z,29.30
2019-04-20T17:55:17.811Z,29.65
2019-04-20T18:00:47.039Z,30.36
2019-04-20T18:06:30.377Z,30.93
2019-04-20T18:11:42.892Z,31.19
2019-04-20T18:17:34.677Z,31.49
2019-04-20T18:22:54.771Z,31.88
2019-04-20T18:28:35.247Z,32.63
2019-04-20T18:33:42.591Z,33.27
2019-04-20T18:39:11.688Z,35.36
2019-04-20T18:44:55.674Z,35.96
2019-04-20T18:50:13.119Z,36.33
2019-04-20T18:55:36.966Z,37.10
2019-04-20T19:00:53.699Z,36.78
2019-04-20T19:06:18.091Z,36.98
2019-04-20T19:11:49.535Z,36.99
2019-04-20T19:17:40.515Z,37.41
2019-04-20T19:22:52.845Z,37.48
2019-04-20T19:28:20.718Z,38.30
2019-04-20T19:34:03.408Z,39.21
2019-04-20T19:39:28.819Z,40.39
2019-04-20T19:44:53.075Z,40.19
2019-04-20T19:50:33.480Z,42.14
2019-04-20T19:55:41.234Z,41.76
2019-04-20T20:00:56.314Z,41.44
2019-04-20T20:06:29.246Z,42.32
2019-04-20T20:11:46.727Z,42.05
2019-04-20T20:17:33.213Z,41.60
2019-04-20T20:22:44.675Z,42.56
2019-04-20T20:28:17.041Z,43.19
2019-04-20T20:33:43.864Z,43.26
2019-04-20T20:39:14.613Z,43.51
2019-04-20T20:44:42.169Z,43.94
2019-04-20T20:50:22.659Z,44.21
2019-04-20T20:55:32.105Z,44.97
2019-04-20T21:01:02.185Z,45.18
2019-04-20T21:06:17.248Z,45.49
2019-04-20T21:11:40.253Z,45.90
2019-04-20T21:17:12.285Z,45.95
2019-04-20T21:22:53.727Z,45.34
2019-04-20T21:27:57.110Z,44.93
2019-04-20T21:33:26.999Z,45.07
2019-04-20T21:38:48.650Z,45.52
2019-04-20T21:44:19.652Z,46.10
2019-04-20T21:49:51.611Z,46.59
2019-04-20T21:55:06.005Z,46.34
2019-04-20T22:00:42.664Z,47.31
2019-04-20T22:06:08.930Z,47.50
2019-04-20T22:11:33.788Z,48.92
2019-04-20T22:17:01.835Z,49.04
2019-04-20T22:22:44.099Z,49.32
2019-04-20T22:27:50.385Z,50.24
2019-04-20T22:33:25.113Z,49.86
2019-04-20T22:39:07.355Z,50.81
2019-04-20T22:44:34.810Z,51.59
2019-04-20T22:50:15.204Z,52.47
2019-04-20T22:55:47.301Z,51.87
2019-04-20T23:00:57.286Z,52.60
2019-04-20T23:06:16.690Z,52.08
2019-04-20T23:11:42.305Z,51.86
2019-04-20T23:17:06.569Z,51.30
2019-04-20T23:22:36.849Z,51.29
2019-04-20T23:27:59.614Z,50.65
2019-04-20T23:33:23.419Z,50.52
2019-04-20T23:38:52.690Z,50.26
2019-04-20T23:44:33.985Z,49.74
2019-04-20T23:50:12.406Z,49.26
2019-04-20T23:55:27.764Z,49.79
